Time;durP1;ratioP1;P1;durP2;ratioP2;P2;SDS_P1;SDS_P2;PMS_P1;PMS_P2;Temp;Humidity;BMP_temperature;BMP_pressure;BME280_temperature;BME280_humidity;BME280_pressure;Samples;Min_cycle;Max_cycle;Signal;HPM_P1;HPM_P2
2023/04/29 00:00:05;;;;;;;21.77;19.45;;;;;;;9.71;100.00;101470.97;5090344;28;20051;-35
2023/04/29 00:02:31;;;;;;;24.05;20.67;;;;;;;9.69;100.00;101468.50;5089724;28;20077;-35
2023/04/29 00:04:56;;;;;;;24.33;20.88;;;;;;;9.65;100.00;101466.41;5090048;28;20024;-35
2023/04/29 00:07:22;;;;;;;23.65;20.60;;;;;;;9.65;100.00;101469.13;5090232;28;20024;-35
2023/04/29 00:09:47;;;;;;;23.97;21.57;;;;;;;9.49;100.00;101463.13;5089634;28;20036;-35
2023/04/29 00:12:12;;;;;;;27.30;21.30;;;;;;;9.55;100.00;101489.28;5082030;28;20035;-35
2023/04/29 00:14:38;;;;;;;23.80;20.43;;;;;;;9.50;100.00;101480.97;5076897;28;20020;-35
2023/04/29 00:17:03;;;;;;;21.77;18.67;;;;;;;9.51;100.00;101479.91;5076378;28;20019;-35
2023/04/29 00:19:29;;;;;;;21.05;18.95;;;;;;;9.52;100.00;101478.91;5076159;28;20028;-35
2023/04/29 00:21:54;;;;;;;23.20;19.35;;;;;;;9.47;100.00;101473.31;5076529;28;20024;-35
2023/04/29 00:24:20;;;;;;;20.50;18.37;;;;;;;9.44;100.00;101473.72;5076475;28;20054;-35
2023/04/29 00:26:45;;;;;;;19.90;17.80;;;;;;;9.49;100.00;101482.00;5076375;28;20283;-35
2023/04/29 00:29:10;;;;;;;19.02;17.00;;;;;;;9.51;100.00;101479.91;5075733;28;20520;-35
2023/04/29 00:31:36;;;;;;;17.47;15.77;;;;;;;9.52;100.00;101486.19;5076061;28;20035;-35
2023/04/29 00:34:02;;;;;;;18.00;16.20;;;;;;;9.49;100.00;101486.59;5075967;28;20266;-36
2023/04/29 00:36:27;;;;;;;18.27;16.60;;;;;;;9.46;100.00;101487.81;5076522;28;20036;-35
2023/04/29 00:38:53;;;;;;;18.00;16.20;;;;;;;9.42;100.00;101491.13;5075601;28;20028;-35
2023/04/29 00:41:19;;;;;;;18.40;16.50;;;;;;;9.32;100.00;101485.31;5075798;28;20025;-35
2023/04/29 00:43:44;;;;;;;18.63;16.63;;;;;;;9.31;100.00;101487.19;5075801;28;20020;-35
2023/04/29 00:46:10;;;;;;;18.63;16.83;;;;;;;9.37;100.00;101494.50;5075824;28;20120;-35
2023/04/29 00:48:35;;;;;;;22.02;18.65;;;;;;;9.35;100.00;101495.72;5075745;28;20051;-36
2023/04/29 00:51:02;;;;;;;21.55;19.35;;;;;;;9.33;100.00;101490.53;5075996;28;20056;-35
2023/04/29 00:53:29;;;;;;;21.30;19.10;;;;;;;9.29;100.00;101490.09;5075643;28;20058;-35
2023/04/29 00:55:55;;;;;;;22.05;19.85;;;;;;;9.29;100.00;101497.38;5075605;28;20025;-35
2023/04/29 00:58:21;;;;;;;22.20;19.90;;;;;;;9.25;100.00;101486.16;5076107;28;20044;-35
2023/04/29 01:00:48;;;;;;;21.13;19.02;;;;;;;9.31;100.00;101508.78;5076121;28;20040;-35
2023/04/29 01:03:14;;;;;;;24.17;19.85;;;;;;;9.24;100.00;101499.88;5075146;28;20517;-35
2023/04/29 01:05:40;;;;;;;22.67;20.27;;;;;;;9.25;100.00;101501.53;5075240;28;20021;-35
2023/04/29 01:08:27;;;;;;;22.80;20.45;;;;;;;9.25;100.00;101502.34;5075345;28;20012;-35
2023/04/29 01:10:58;;;;;;;22.27;20.02;;;;;;;9.20;100.00;101510.22;5075617;28;20368;-35
2023/04/29 01:13:34;;;;;;;22.85;20.08;;;;;;;9.17;100.00;101504.41;5075868;28;20024;-35
2023/04/29 01:16:07;;;;;;;24.08;20.90;;;;;;;9.21;100.00;101514.59;5076040;28;20021;-35
2023/04/29 01:18:40;;;;;;;22.85;20.48;;;;;;;9.14;100.00;101518.31;5075249;28;20027;-36
2023/04/29 01:21:05;;;;;;;23.90;21.48;;;;;;;9.15;100.00;101512.72;5075059;28;20059;-35
2023/04/29 01:23:30;;;;;;;25.02;21.60;;;;;;;9.09;100.00;101510.84;5073819;28;20052;-36
2023/04/29 01:25:57;;;;;;;24.23;21.73;;;;;;;9.12;100.00;101523.91;5075581;28;20024;-36
2023/04/29 01:28:33;;;;;;;;;;;;;;;9.21;100.00;101525.38;5075418;28;20398;-35
2023/04/29 01:31:51;;;;;;;22.48;20.08;;;;;;;9.17;100.00;101524.13;5074602;28;19941;-35
2023/04/29 01:34:26;;;;;;;22.23;19.85;;;;;;;9.17;100.00;101526.00;5062642;28;20036;-36
2023/04/29 01:37:03;;;;;;;23.15;20.67;;;;;;;9.12;100.00;101525.78;5075368;28;20024;-35
2023/04/29 01:39:51;;;;;;;24.65;21.67;;;;;;;8.99;100.00;101508.53;5074349;28;20025;-35
2023/04/29 01:42:37;;;;;;;24.55;21.88;;;;;;;9.12;100.00;101526.59;5075043;28;20460;-35
2023/04/29 01:45:07;;;;;;;24.77;21.67;;;;;;;9.12;100.00;101531.19;5074649;28;20020;-35
2023/04/29 01:47:32;;;;;;;25.20;21.33;;;;;;;9.11;100.00;101535.75;5074872;28;20020;-36
2023/04/29 01:49:58;;;;;;;22.92;20.45;;;;;;;9.15;100.00;101536.19;5074263;28;20417;-35
2023/04/29 01:52:23;;;;;;;24.77;20.70;;;;;;;9.20;100.00;101529.13;5074784;28;20047;-35
2023/04/29 01:54:48;;;;;;;22.63;20.37;;;;;;;9.15;100.00;101525.38;5074474;28;20021;-35
2023/04/29 01:57:14;;;;;;;24.70;22.10;;;;;;;9.19;100.00;101532.03;5074802;28;20239;-35
2023/04/29 01:59:40;;;;;;;27.73;22.90;;;;;;;9.20;100.00;101533.69;5074826;28;20078;-35
2023/04/29 02:02:06;;;;;;;28.80;23.02;;;;;;;9.07;100.00;101520.16;5074328;28;20016;-35
2023/04/29 02:04:33;;;;;;;26.83;21.95;;;;;;;9.15;100.00;101536.19;5073986;28;20373;-35
2023/04/29 02:06:58;;;;;;;25.98;21.98;;;;;;;9.16;100.00;101538.66;5074003;28;20419;-35
2023/04/29 02:09:24;;;;;;;26.48;23.38;;;;;;;9.14;100.00;101535.34;5074441;28;20025;-35
2023/04/29 02:11:49;;;;;;;27.83;24.77;;;;;;;9.13;100.00;101546.34;5074166;28;20020;-35
2023/04/29 02:14:14;;;;;;;27.37;23.40;;;;;;;9.09;100.00;101547.78;5074133;28;20073;-36
2023/04/29 02:16:43;;;;;;;31.77;25.10;;;;;;;9.03;100.00;101536.78;5073788;28;20345;-35
2023/04/29 02:19:11;;;;;;;31.85;24.85;;;;;;;9.11;100.00;101554.63;5073925;28;20279;-35
2023/04/29 02:21:38;;;;;;;30.52;25.60;;;;;;;9.07;100.00;101549.84;5074255;28;20193;-35
2023/04/29 02:24:05;;;;;;;29.63;24.67;;;;;;;9.05;100.00;101558.16;5073629;28;20028;-35
2023/04/29 02:26:30;;;;;;;;;;;;;;;9.12;100.00;101561.69;5074630;28;20082;-35
2023/04/29 02:28:56;;;;;;;28.23;23.55;;;;;;;9.04;100.00;101556.50;5073605;28;20356;-35
2023/04/29 02:31:21;;;;;;;30.95;24.95;;;;;;;9.03;100.00;101563.75;5074389;28;20060;-35
2023/04/29 02:33:47;;;;;;;33.50;26.30;;;;;;;8.98;100.00;101563.53;5074301;28;20036;-35
2023/04/29 02:36:12;;;;;;;30.20;25.25;;;;;;;9.01;100.00;101573.91;5073856;28;20449;-35
2023/04/29 02:38:38;;;;;;;31.20;24.43;;;;;;;8.97;100.00;101564.56;5074061;28;20518;-35
2023/04/29 02:41:03;;;;;;;33.03;26.53;;;;;;;9.03;100.00;101576.41;5074517;28;20285;-35
2023/04/29 02:43:31;;;;;;;31.03;25.90;;;;;;;9.03;100.00;101582.66;5073737;28;20020;-35
2023/04/29 02:45:57;;;;;;;33.25;26.52;;;;;;;8.94;100.00;101578.47;5073368;28;20062;-35
2023/04/29 02:48:22;;;;;;;32.90;26.10;;;;;;;9.01;100.00;101589.25;5073573;28;20055;-36
2023/04/29 02:50:48;;;;;;;35.40;26.60;;;;;;;9.02;100.00;101596.31;5074037;28;20055;-36
2023/04/29 02:53:13;;;;;;;34.85;26.83;;;;;;;8.99;100.00;101596.75;5073581;28;20048;-36
2023/04/29 02:55:38;;;;;;;32.27;26.40;;;;;;;8.96;100.00;101595.25;5074195;28;20032;-36
2023/04/29 02:58:04;;;;;;;33.03;24.87;;;;;;;9.01;100.00;101605.44;5073633;28;20020;-36
2023/04/29 03:00:29;;;;;;;31.97;25.70;;;;;;;9.00;100.00;101606.50;5073974;28;20036;-36
2023/04/29 03:02:54;;;;;;;32.17;24.98;;;;;;;8.99;100.00;101608.34;5073509;28;20029;-36
2023/04/29 03:05:20;;;;;;;32.13;25.10;;;;;;;9.00;100.00;101604.63;5073250;28;20056;-36
2023/04/29 03:07:45;;;;;;;32.50;23.07;;;;;;;8.98;100.00;101606.69;5073544;28;20048;-36
2023/04/29 03:10:11;;;;;;;28.33;22.60;;;;;;;8.97;100.00;101614.97;5073463;28;20342;-36
2023/04/29 03:12:36;;;;;;;27.60;21.65;;;;;;;8.98;100.00;101608.56;5073392;28;20024;-36
2023/04/29 03:15:02;;;;;;;32.33;22.53;;;;;;;8.97;100.00;101615.81;5073992;28;20032;-36
2023/04/29 03:17:27;;;;;;;28.98;23.25;;;;;;;8.90;100.00;101604.16;5073303;28;20050;-36
2023/04/29 03:19:53;;;;;;;26.07;21.47;;;;;;;8.96;100.00;101621.41;5073911;28;20032;-36
2023/04/29 03:22:18;;;;;;;27.48;21.45;;;;;;;8.93;100.00;101622.66;5073340;28;20021;-36
2023/04/29 03:24:47;;;;;;;27.52;20.85;;;;;;;8.91;100.00;101619.31;5073314;28;20044;-36
2023/04/29 03:27:13;;;;;;;29.02;22.13;;;;;;;8.93;100.00;101628.06;5073243;28;20457;-36
2023/04/29 03:29:38;;;;;;;27.75;21.10;;;;;;;8.88;100.00;101616.19;5073225;28;20063;-36
2023/04/29 03:32:04;;;;;;;27.67;20.57;;;;;;;8.92;100.00;101631.75;5073365;28;20028;-36
2023/04/29 03:34:29;;;;;;;26.13;19.83;;;;;;;8.90;100.00;101630.31;5073446;28;20746;-36
2023/04/29 03:36:56;;;;;;;26.52;19.40;;;;;;;8.90;100.00;101624.91;5073188;28;20338;-36
2023/04/29 03:39:21;;;;;;;28.35;19.42;;;;;;;8.87;100.00;101631.53;5073138;28;20028;-36
2023/04/29 03:41:47;;;;;;;21.80;19.15;;;;;;;8.84;100.00;101629.25;5073709;28;20028;-36
2023/04/29 03:44:12;;;;;;;24.20;18.47;;;;;;;8.86;100.00;101619.09;5073377;28;20146;-36
2023/04/29 03:46:37;;;;;;;24.55;19.73;;;;;;;8.86;100.00;101624.47;5074276;28;20078;-36
2023/04/29 03:49:03;;;;;;;23.80;18.10;;;;;;;8.94;100.00;101636.97;5076817;28;20077;-36
2023/04/29 03:51:28;;;;;;;22.03;18.27;;;;;;;8.88;100.00;101627.81;5077428;28;20081;-36
2023/04/29 03:53:58;;;;;;;23.77;18.65;;;;;;;8.96;100.00;101632.19;5076717;28;20024;-36
2023/04/29 03:56:26;;;;;;;21.90;18.73;;;;;;;9.00;100.00;101636.16;5077568;28;20040;-36
2023/04/29 03:58:52;;;;;;;23.38;18.42;;;;;;;9.00;100.00;101636.16;5076700;28;20360;-36
2023/04/29 04:01:18;;;;;;;20.45;17.55;;;;;;;9.01;100.00;101635.94;5077139;28;20048;-36
2023/04/29 04:03:44;;;;;;;22.00;18.95;;;;;;;9.01;100.00;101637.81;5077092;28;20013;-36
2023/04/29 04:06:09;;;;;;;21.65;18.58;;;;;;;8.98;100.00;101639.06;5076811;28;20027;-36
2023/04/29 04:08:34;;;;;;;22.63;17.43;;;;;;;8.96;100.00;101638.44;5076561;28;20025;-36
2023/04/29 04:11:02;;;;;;;23.70;18.93;;;;;;;8.99;100.00;101654.22;5076549;28;20380;-36
2023/04/29 04:13:30;;;;;;;20.83;18.23;;;;;;;8.99;100.00;101651.53;5076373;28;20024;-36
2023/04/29 04:15:56;;;;;;;22.13;18.52;;;;;;;8.99;100.00;101659.63;5076995;28;20021;-36
2023/04/29 04:18:21;;;;;;;20.58;18.02;;;;;;;8.95;100.00;101655.66;5075990;28;20051;-36
2023/04/29 04:20:47;;;;;;;22.33;18.67;;;;;;;9.00;100.00;101657.75;5077074;28;20028;-36
2023/04/29 04:23:13;;;;;;;23.63;18.03;;;;;;;8.99;100.00;101651.53;5076266;28;20441;-36
2023/04/29 04:25:44;;;;;;;22.23;17.33;;;;;;;8.95;100.00;101650.25;5077056;28;20035;-36
2023/04/29 04:28:09;;;;;;;22.83;18.70;;;;;;;9.01;100.00;101665.63;5076756;28;20016;-36
2023/04/29 04:30:35;;;;;;;20.20;18.00;;;;;;;9.03;100.00;101660.06;5076671;28;20047;-36
2023/04/29 04:33:01;;;;;;;20.13;17.80;;;;;;;9.05;100.00;101662.53;5076549;28;20073;-36
2023/04/29 04:35:26;;;;;;;19.13;17.17;;;;;;;9.03;100.00;101671.69;5076374;28;20254;-36
2023/04/29 04:37:52;;;;;;;23.57;18.73;;;;;;;9.02;100.00;101674.56;5075979;28;20024;-36
2023/04/29 04:40:17;;;;;;;22.60;18.03;;;;;;;8.96;100.00;101665.41;5076174;28;20098;-36
2023/04/29 04:42:42;;;;;;;23.00;17.97;;;;;;;9.01;100.00;101681.00;5075689;28;20353;-36
2023/04/29 04:45:10;;;;;;;19.27;16.97;;;;;;;9.00;100.00;101685.56;5075894;28;20364;-36
2023/04/29 04:47:35;;;;;;;19.45;16.17;;;;;;;9.00;100.00;101688.25;5075466;28;20269;-36
2023/04/29 04:50:02;;;;;;;21.17;17.55;;;;;;;8.97;100.00;101685.94;5076061;28;20021;-36
2023/04/29 04:52:28;;;;;;;18.77;16.00;;;;;;;9.00;100.00;101696.34;5075345;28;20368;-36
2023/04/29 04:54:53;;;;;;;20.13;16.77;;;;;;;9.01;100.00;101707.97;5075966;28;20025;-36
2023/04/29 04:57:18;;;;;;;19.03;16.63;;;;;;;9.02;100.00;101715.84;5075752;28;20480;-36
2023/04/29 04:59:44;;;;;;;20.37;16.63;;;;;;;8.86;100.00;101689.22;5075640;28;20464;-36
2023/04/29 05:02:09;;;;;;;19.97;16.40;;;;;;;9.03;100.00;101720.25;5075577;28;20441;-36
2023/04/29 05:04:34;;;;;;;19.10;16.03;;;;;;;8.97;100.00;101718.31;5076087;28;20444;-36
2023/04/29 05:07:00;;;;;;;19.83;15.77;;;;;;;9.06;100.00;101734.34;5075069;28;20278;-36
2023/04/29 05:09:25;;;;;;;19.90;16.70;;;;;;;9.06;100.00;101729.78;5075051;28;20029;-36
2023/04/29 05:11:51;;;;;;;17.77;15.65;;;;;;;9.06;100.00;101731.66;5075620;28;20027;-36
2023/04/29 05:14:17;;;;;;;20.48;16.15;;;;;;;9.03;100.00;101733.72;5075257;28;20519;-36
2023/04/29 05:16:44;;;;;;;;;;;;;;;9.12;100.00;101737.06;5075944;28;20094;-36
2023/04/29 05:19:09;;;;;;;19.02;15.40;;;;;;;8.85;100.00;101701.03;5075421;28;20337;-36
2023/04/29 05:21:35;;;;;;;24.70;16.88;;;;;;;8.95;100.00;101728.47;5075414;28;20020;-36
2023/04/29 05:24:00;;;;;;;20.10;15.03;;;;;;;8.98;100.00;101728.09;5075639;28;20070;-36
2023/04/29 05:26:25;;;;;;;20.80;16.23;;;;;;;9.05;100.00;101743.47;5075109;28;20032;-36
2023/04/29 05:28:51;;;;;;;18.23;16.23;;;;;;;9.07;100.00;101749.50;5074652;28;20310;-36
2023/04/29 05:31:16;;;;;;;18.80;16.03;;;;;;;8.95;100.00;101731.19;5075022;28;20115;-36
2023/04/29 05:33:41;;;;;;;16.40;14.50;;;;;;;9.09;100.00;101755.56;5074649;28;20025;-36
2023/04/29 05:36:07;;;;;;;18.80;15.07;;;;;;;9.08;100.00;101751.16;5074934;28;20025;-36
2023/04/29 05:38:35;;;;;;;18.58;14.75;;;;;;;9.04;100.00;101748.03;5075294;28;20504;-36
2023/04/29 05:41:01;;;;;;;18.38;14.68;;;;;;;9.02;100.00;101747.41;5074942;28;20021;-36
2023/04/29 05:43:26;;;;;;;20.85;16.48;;;;;;;9.06;100.00;101753.25;5074600;28;20027;-36
2023/04/29 05:45:52;;;;;;;16.80;14.63;;;;;;;9.06;100.00;101761.34;5074662;28;20091;-36
2023/04/29 05:48:17;;;;;;;17.57;14.10;;;;;;;9.08;100.00;101759.25;5074842;28;20444;-36
2023/04/29 05:50:43;;;;;;;17.13;15.33;;;;;;;9.09;100.00;101760.94;5074605;28;20023;-36
2023/04/29 05:53:08;;;;;;;16.85;15.00;;;;;;;9.05;100.00;101767.75;5074411;28;20021;-36
2023/04/29 05:55:33;;;;;;;17.30;14.63;;;;;;;8.99;100.00;101764.84;5074508;28;20081;-36
2023/04/29 05:57:59;;;;;;;17.13;14.82;;;;;;;9.07;100.00;101776.47;5074611;28;20020;-36
2023/04/29 06:00:24;;;;;;;16.53;14.60;;;;;;;9.06;100.00;101766.72;5074437;28;20044;-36
2023/04/29 06:02:50;;;;;;;16.07;14.37;;;;;;;9.05;100.00;101778.56;5074009;28;20052;-36
2023/04/29 06:05:15;;;;;;;18.08;14.48;;;;;;;9.08;100.00;101784.41;5074305;28;20457;-37
2023/04/29 06:07:41;;;;;;;15.90;14.00;;;;;;;9.08;100.00;101784.41;5074242;28;20020;-36
2023/04/29 06:10:07;;;;;;;15.93;14.18;;;;;;;9.11;100.00;101799.34;5073967;28;20036;-35
2023/04/29 06:12:33;;;;;;;15.82;14.18;;;;;;;9.09;100.00;101796.03;5073815;28;20449;-36
2023/04/29 06:14:58;;;;;;;15.88;14.13;;;;;;;9.12;100.00;101798.31;5074551;28;20016;-36
2023/04/29 06:17:24;;;;;;;15.83;14.07;;;;;;;9.10;100.00;101800.38;5074047;28;20082;-35
2023/04/29 06:19:49;;;;;;;14.73;13.13;;;;;;;9.14;100.00;101796.25;5073707;28;20654;-35
2023/04/29 06:22:15;;;;;;;16.67;13.05;;;;;;;9.15;100.00;101800.63;5073590;28;20263;-35
2023/04/29 06:24:40;;;;;;;15.57;13.87;;;;;;;9.23;100.00;101808.56;5073968;28;20020;-35
2023/04/29 06:27:05;;;;;;;17.93;14.17;;;;;;;9.27;100.00;101807.97;5074294;28;20337;-35
2023/04/29 06:29:31;;;;;;;18.75;13.88;;;;;;;9.28;100.00;101814.19;5073866;28;20032;-35
2023/04/29 06:31:56;;;;;;;17.17;13.27;;;;;;;9.23;100.00;101809.41;5073899;28;20067;-35
2023/04/29 06:34:22;;;;;;;14.00;12.60;;;;;;;9.28;100.00;101811.50;5074357;28;20077;-35
2023/04/29 06:36:47;;;;;;;15.70;12.80;;;;;;;9.41;100.00;101822.34;5074138;28;20025;-35
2023/04/29 06:39:12;;;;;;;14.80;12.80;;;;;;;9.48;100.00;101825.94;5074018;28;20350;-35
2023/04/29 06:41:39;;;;;;;16.63;13.40;;;;;;;9.44;100.00;101819.25;5073775;28;20035;-35
2023/04/29 06:44:04;;;;;;;14.48;12.60;;;;;;;9.58;100.00;101832.84;5074177;28;20351;-36
2023/04/29 06:46:29;;;;;;;16.07;13.13;;;;;;;9.59;100.00;101845.31;5074379;28;20107;-35
2023/04/29 06:48:55;;;;;;;14.73;12.93;;;;;;;9.59;100.00;101845.31;5073662;28;20290;-36
2023/04/29 06:51:20;;;;;;;13.33;11.93;;;;;;;9.51;100.00;101828.22;5073596;28;20024;-36
2023/04/29 06:53:45;;;;;;;13.57;12.27;;;;;;;9.62;100.00;101848.44;5073648;28;20024;-36
2023/04/29 06:56:11;;;;;;;13.00;11.60;;;;;;;9.62;100.00;101848.44;5074412;28;20621;-36
2023/04/29 06:58:37;;;;;;;14.60;11.30;;;;;;;9.53;100.00;101841.53;5073254;28;20020;-36
2023/04/29 07:01:03;;;;;;;12.98;11.68;;;;;;;9.64;100.00;101867.13;5074506;28;20127;-39
2023/04/29 07:03:28;;;;;;;12.40;11.10;;;;;;;9.65;100.00;101868.81;5073520;28;20441;-36
2023/04/29 07:05:53;;;;;;;13.02;11.70;;;;;;;9.66;100.00;101862.34;5073820;28;20024;-36
2023/04/29 07:08:19;;;;;;;13.27;11.37;;;;;;;9.68;100.00;101866.53;5073740;28;20021;-36
2023/04/29 07:10:53;;;;;;;13.10;11.70;;;;;;;9.73;100.00;101869.47;5073992;28;20103;-36
2023/04/29 07:13:18;;;;;;;11.98;10.65;;;;;;;9.74;100.00;101887.34;5072828;28;20353;-36
2023/04/29 07:15:44;;;;;;;13.40;11.37;;;;;;;9.65;100.00;101864.22;5072748;28;20086;-36
2023/04/29 07:18:09;;;;;;;11.87;10.67;;;;;;;9.77;100.00;101886.13;5073301;28;20610;-36
2023/04/29 07:20:38;;;;;;;13.88;10.50;;;;;;;9.79;100.00;101884.88;5073799;28;20310;-36
2023/04/29 07:23:03;;;;;;;11.27;9.88;;;;;;;9.85;100.00;101888.63;5076282;28;20353;-36
2023/04/29 07:25:29;;;;;;;11.10;9.95;;;;;;;9.92;100.00;101885.97;5077395;28;20024;-36
2023/04/29 07:27:55;;;;;;;10.77;9.73;;;;;;;9.91;100.00;101889.72;5076624;28;20032;-35
2023/04/29 07:30:22;;;;;;;12.55;10.35;;;;;;;9.99;100.00;101895.75;5076923;28;20522;-36
2023/04/29 07:32:47;;;;;;;10.48;8.90;;;;;;;10.13;100.00;101895.84;5077037;28;20024;-35
2023/04/29 07:35:13;;;;;;;13.18;10.10;;;;;;;10.16;100.00;101898.13;5075472;28;20040;-36
2023/04/29 07:37:38;;;;;;;12.10;10.90;;;;;;;10.29;100.00;101901.72;5077023;28;20020;-35
2023/04/29 07:40:04;;;;;;;10.73;9.43;;;;;;;10.35;100.00;101899.28;5076697;28;20349;-36
2023/04/29 07:42:30;;;;;;;11.63;10.07;;;;;;;10.38;100.00;101890.72;5076672;28;20286;-36
2023/04/29 07:44:55;;;;;;;10.43;9.13;;;;;;;10.45;100.00;101900.53;5076140;28;20033;-35
2023/04/29 07:47:21;;;;;;;12.18;8.82;;;;;;;10.45;100.00;101899.72;5076853;28;20054;-35
2023/04/29 07:49:46;;;;;;;12.05;10.00;;;;;;;10.54;100.00;101907.44;5076823;28;20033;-35
2023/04/29 07:52:11;;;;;;;10.17;8.93;;;;;;;10.60;100.00;101899.53;5076167;28;20086;-35
2023/04/29 07:54:37;;;;;;;12.50;9.80;;;;;;;10.72;100.00;101912.22;5076776;28;20129;-35
2023/04/29 07:57:03;;;;;;;11.15;9.00;;;;;;;10.71;100.00;101901.63;5076622;28;20467;-35
2023/04/29 07:59:29;;;;;;;12.02;9.68;;;;;;;10.78;100.00;101921.41;5075725;28;20024;-36
2023/04/29 08:01:54;;;;;;;11.27;9.40;;;;;;;10.76;100.00;101912.66;5076017;28;20380;-35
2023/04/29 08:04:20;;;;;;;11.30;9.05;;;;;;;10.75;100.00;101919.94;5076311;28;20103;-36
2023/04/29 08:06:45;;;;;;;10.18;9.18;;;;;;;10.66;100.00;101913.06;5076807;28;20417;-35
2023/04/29 08:09:11;;;;;;;9.30;8.38;;;;;;;10.72;100.00;101911.41;5075615;28;20103;-35
2023/04/29 08:11:36;;;;;;;10.00;8.90;;;;;;;10.81;100.00;101929.09;5077012;28;20036;-35
2023/04/29 08:14:02;;;;;;;9.23;8.33;;;;;;;10.90;100.00;101930.59;5076164;28;20283;-35
2023/04/29 08:16:27;;;;;;;10.82;9.35;;;;;;;10.92;100.00;101922.25;5076884;28;20721;-35
2023/04/29 08:18:53;;;;;;;10.50;8.87;;;;;;;11.01;100.00;101932.66;5075669;28;20376;-35
2023/04/29 08:21:18;;;;;;;9.35;8.35;;;;;;;10.98;100.00;101937.66;5075728;28;20020;-35
2023/04/29 08:23:44;;;;;;;9.77;8.77;;;;;;;10.97;100.00;101939.53;5076198;28;20025;-36
2023/04/29 08:26:12;;;;;;;10.60;8.93;;;;;;;11.05;100.00;101927.69;5076480;28;20032;-36
2023/04/29 08:28:38;;;;;;;11.52;9.20;;;;;;;11.13;100.00;101935.59;5075802;28;20119;-35
2023/04/29 08:31:06;;;;;;;12.25;9.23;;;;;;;11.31;100.00;101937.66;5076142;28;20103;-36
2023/04/29 08:33:35;;;;;;;11.55;8.35;;;;;;;11.43;100.00;101941.41;5074999;28;20388;-35
2023/04/29 08:36:02;;;;;;;9.82;8.45;;;;;;;11.56;100.00;101949.50;5076494;28;20066;-36
2023/04/29 08:38:28;;;;;;;10.48;9.18;;;;;;;11.57;100.00;101945.78;5075186;28;20427;-36
2023/04/29 08:40:55;;;;;;;10.50;9.40;;;;;;;11.47;100.00;101953.50;5076121;28;20031;-37
2023/04/29 08:43:21;;;;;;;9.80;8.80;;;;;;;11.40;100.00;101939.13;5076072;28;20112;-36
2023/04/29 08:45:48;;;;;;;11.50;9.45;;;;;;;11.47;100.00;101958.09;5075531;28;20025;-37
2023/04/29 08:48:15;;;;;;;12.27;9.18;;;;;;;11.35;100.00;101941.63;5075651;28;20044;-37
2023/04/29 08:50:41;;;;;;;11.85;8.77;;;;;;;11.41;100.00;101958.91;5075530;28;20481;-40
2023/04/29 08:53:07;;;;;;;;;;;;;;;11.55;100.00;101955.97;5076126;28;20029;-37
2023/04/29 08:55:43;;;;;;;9.00;7.97;;;;;;;11.56;100.00;101944.09;5075611;28;19966;-37
2023/04/29 08:58:09;;;;;;;9.57;8.65;;;;;;;11.84;100.00;101948.44;5075207;28;20055;-37
2023/04/29 09:00:35;;;;;;;;;;;;;;;12.16;100.00;101962.13;5075809;28;20349;-37
2023/04/29 09:03:11;;;;;;;12.73;8.77;;;;;;;12.10;100.00;101963.78;5075295;28;19919;-37
2023/04/29 09:05:37;;;;;;;;;;;;;;;12.25;100.00;101960.81;5076174;28;20028;-37
2023/04/29 09:08:04;;;;;;;12.20;8.70;;;;;;;12.30;100.00;101959.16;5075920;28;19915;-36
2023/04/29 09:10:29;;;;;;;8.90;7.60;;;;;;;12.25;100.00;101958.09;5074684;28;20460;-36
2023/04/29 09:12:57;;;;;;;7.95;6.63;;;;;;;12.31;100.00;101958.09;5074859;28;20029;-37
2023/04/29 09:15:22;;;;;;;10.35;6.82;;;;;;;12.27;100.00;101954.16;5075299;28;20029;-37
2023/04/29 09:17:48;;;;;;;10.87;7.50;;;;;;;12.36;100.00;101969.13;5074527;28;20111;-36
2023/04/29 09:20:19;;;;;;;9.65;7.00;;;;;;;12.34;100.00;101956.81;5074760;28;20020;-37
2023/04/29 09:22:53;;;;;;;8.00;7.18;;;;;;;12.31;100.00;101965.41;5075552;28;20471;-37
2023/04/29 09:25:19;;;;;;;8.00;6.68;;;;;;;12.46;100.00;101963.25;5075211;28;20028;-36
2023/04/29 09:27:45;;;;;;;8.73;7.60;;;;;;;12.74;100.00;101970.19;5074243;28;20028;-37
2023/04/29 09:30:12;;;;;;;7.95;7.00;;;;;;;12.86;100.00;101957.59;5074885;28;20046;-36
2023/04/29 09:32:38;;;;;;;9.18;6.47;;;;;;;13.00;100.00;101970.03;5074544;28;20060;-36
2023/04/29 09:35:26;;;;;;;8.85;6.63;;;;;;;13.17;100.00;101966.75;5075312;28;20024;-37
2023/04/29 09:38:08;;;;;;;7.70;6.72;;;;;;;13.17;99.91;101973.00;5074721;28;20025;-37
2023/04/29 09:40:34;;;;;;;8.82;6.82;;;;;;;13.27;99.43;101970.66;5073343;28;20027;-37
2023/04/29 09:43:00;;;;;;;7.93;6.22;;;;;;;13.26;95.94;101968.19;5075039;28;20342;-37
2023/04/29 09:45:40;;;;;;;6.93;6.22;;;;;;;13.51;99.21;101960.00;5073961;28;20024;-37
2023/04/29 09:48:07;;;;;;;7.32;6.25;;;;;;;13.75;98.42;101966.47;5074716;28;20021;-37
2023/04/29 09:50:36;;;;;;;7.47;6.15;;;;;;;13.72;96.16;101972.38;5074556;28;20028;-37
2023/04/29 09:53:01;;;;;;;7.95;6.05;;;;;;;13.54;96.69;101971.28;5074458;28;20043;-37
2023/04/29 09:55:28;;;;;;;9.32;6.53;;;;;;;13.40;96.20;101980.59;5074444;28;20024;-37
2023/04/29 09:57:54;;;;;;;8.65;6.03;;;;;;;13.35;97.19;101983.16;5074661;28;20028;-37
2023/04/29 10:00:20;;;;;;;9.73;6.72;;;;;;;13.69;100.00;101980.97;5073531;28;20477;-36
2023/04/29 10:02:47;;;;;;;7.32;6.15;;;;;;;13.70;94.78;101979.91;5074329;28;20020;-37
2023/04/29 10:05:14;;;;;;;8.70;6.28;;;;;;;13.54;92.97;101982.16;5074594;28;20017;-37
2023/04/29 10:07:40;;;;;;;8.85;7.15;;;;;;;13.31;91.59;101992.78;5073975;28;20024;-35
2023/04/29 10:10:07;;;;;;;8.18;6.47;;;;;;;13.21;95.18;101985.09;5072384;28;20407;-35
2023/04/29 10:12:34;;;;;;;7.63;5.90;;;;;;;13.28;94.03;101993.25;5073408;28;20024;-36
2023/04/29 10:15:08;;;;;;;6.07;5.28;;;;;;;13.36;94.53;101996.50;5072824;28;20020;-36
2023/04/29 10:17:40;;;;;;;7.10;5.68;;;;;;;13.44;94.61;101998.13;5073189;28;20025;-36
2023/04/29 10:20:07;;;;;;;8.48;6.20;;;;;;;13.45;96.24;102001.66;5072830;28;20472;-36
2023/04/29 10:22:45;;;;;;;6.70;5.50;;;;;;;13.44;93.47;102008.16;5073436;28;20037;-36
2023/04/29 10:25:11;;;;;;;13.52;6.00;;;;;;;13.31;95.30;102001.78;5073608;28;20421;-36
2023/04/29 10:27:38;;;;;;;8.82;6.07;;;;;;;13.44;94.19;102000.00;5073780;28;20103;-35
2023/04/29 10:30:05;;;;;;;6.70;5.57;;;;;;;13.51;nan;101998.88;5073843;28;20020;-36
2023/04/29 10:32:33;;;;;;;6.45;5.35;;;;;;;13.62;93.15;102008.22;5072754;28;20487;-36
2023/04/29 10:35:01;;;;;;;6.38;5.43;;;;;;;13.74;94.48;102003.72;5073149;28;20028;-35
2023/04/29 10:37:26;;;;;;;8.43;6.03;;;;;;;13.58;90.84;101980.66;5073044;28;20025;-36
2023/04/29 10:40:09;;;;;;;7.85;5.82;;;;;;;13.64;91.20;102004.22;5073381;28;20016;-36
2023/04/29 10:42:41;;;;;;;7.20;5.55;;;;;;;13.63;90.12;102013.44;5072881;28;20031;-36
2023/04/29 10:45:26;;;;;;;8.07;4.82;;;;;;;13.68;90.71;102009.22;5074006;28;20029;-36
2023/04/29 10:48:01;;;;;;;7.15;4.70;;;;;;;13.76;91.28;102008.91;5073521;28;20025;-36
2023/04/29 10:50:33;;;;;;;5.43;4.63;;;;;;;13.84;90.55;102004.03;5073679;28;20029;-36
2023/04/29 10:53:03;;;;;;;5.97;4.50;;;;;;;13.96;89.81;102004.13;5073154;28;20103;-36
2023/04/29 10:55:29;;;;;;;5.95;5.03;;;;;;;13.88;89.85;102013.41;5073030;28;20021;-36
2023/04/29 10:57:55;;;;;;;;;;;;;;;14.01;93.38;102015.16;5073529;28;20024;-36
2023/04/29 11:00:32;;;;;;;4.97;4.07;;;;;;;14.00;92.74;102010.75;5073419;28;20275;-36
2023/04/29 11:03:00;;;;;;;6.53;4.88;;;;;;;13.84;87.71;102020.34;5072731;28;20028;-36
2023/04/29 11:05:36;;;;;;;7.15;4.80;;;;;;;13.84;88.45;102008.63;5073225;28;20432;-36
2023/04/29 11:08:12;;;;;;;6.00;4.70;;;;;;;13.77;89.46;102002.44;5072727;28;20496;-37
2023/04/29 11:10:43;;;;;;;5.85;4.88;;;;;;;13.84;90.41;102004.03;5072607;28;20172;-36
2023/04/29 11:13:27;;;;;;;6.40;4.63;;;;;;;13.98;91.28;102012.88;5071758;28;20376;-36